Time;durP1;ratioP1;P1;durP2;ratioP2;P2;SDS_P1;SDS_P2;PMS_P1;PMS_P2;Temp;Humidity;BMP_temperature;BMP_pressure;BME280_temperature;BME280_humidity;BME280_pressure;Samples;Min_cycle;Max_cycle;Signal;HPM_P1;HPM_P2
2023/12/01 00:02:17;;;;;;;5.93;4.30;;;;;;;;;;5016822;28;20422;-75
2023/12/01 00:04:42;;;;;;;5.07;4.43;;;;;;;;;;5019036;28;20193;-76
2023/12/01 00:07:07;;;;;;;6.47;4.40;;;;;;;;;;5017997;28;20176;-76
2023/12/01 00:09:33;;;;;;;4.60;3.80;;;;;;;;;;5019941;28;20194;-76
2023/12/01 00:11:58;;;;;;;7.30;4.30;;;;;;;;;;5017493;28;20253;-76
2023/12/01 00:14:23;;;;;;;4.80;4.07;;;;;;;;;;5019117;28;20188;-76
2023/12/01 00:16:49;;;;;;;12.07;5.10;;;;;;;;;;5019541;28;20659;-76
2023/12/01 00:19:14;;;;;;;11.23;5.07;;;;;;;;;;5013836;28;20191;-75
2023/12/01 00:21:39;;;;;;;4.97;4.20;;;;;;;;;;5018124;28;20180;-76
2023/12/01 00:24:04;;;;;;;5.80;4.10;;;;;;;;;;5022298;28;20236;-76
2023/12/01 00:26:32;;;;;;;3.70;3.33;;;;;;;;;;5014083;28;20194;-76
2023/12/01 00:28:57;;;;;;;4.93;3.80;;;;;;;;;;5013074;28;20175;-76
2023/12/01 00:31:23;;;;;;;5.47;4.20;;;;;;;;;;5011328;28;20187;-76
2023/12/01 00:33:48;;;;;;;4.97;4.03;;;;;;;;;;5014831;28;20171;-76
2023/12/01 00:36:13;;;;;;;7.20;4.27;;;;;;;;;;5021741;28;20179;-76
2023/12/01 00:38:38;;;;;;;5.70;4.00;;;;;;;;;;5021292;28;20282;-77
2023/12/01 00:41:04;;;;;;;5.60;4.00;;;;;;;;;;5014370;28;20175;-75
2023/12/01 00:43:29;;;;;;;6.13;4.40;;;;;;;;;;5013427;28;20273;-76
2023/12/01 00:45:54;;;;;;;5.20;3.80;;;;;;;;;;5017369;28;20182;-76
2023/12/01 00:48:19;;;;;;;4.37;3.70;;;;;;;;;;5017755;28;20178;-76
2023/12/01 00:50:45;;;;;;;4.60;3.77;;;;;;;;;;5018048;28;20229;-76
2023/12/01 00:53:10;;;;;;;6.10;4.40;;;;;;;;;;5019515;28;20189;-76
2023/12/01 00:55:35;;;;;;;4.60;3.93;;;;;;;;;;5011158;28;20186;-76
2023/12/01 00:58:01;;;;;;;5.33;3.90;;;;;;;;;;5011789;28;20340;-76
2023/12/01 01:00:26;;;;;;;5.70;4.60;;;;;;;;;;5018858;28;20183;-76
2023/12/01 01:02:51;;;;;;;4.43;4.03;;;;;;;;;;5013723;28;20175;-76
2023/12/01 01:05:16;;;;;;;4.50;4.10;;;;;;;;;;5016172;28;20171;-76
2023/12/01 01:07:42;;;;;;;6.77;4.90;;;;;;;;;;5019027;28;20179;-76
2023/12/01 01:10:07;;;;;;;5.40;4.70;;;;;;;;;;5011873;28;20179;-77
2023/12/01 01:12:32;;;;;;;5.13;4.37;;;;;;;;;;5017435;28;20202;-77
2023/12/01 01:15:02;;;;;;;7.63;5.80;;;;;;;;;;5018710;28;20213;-76
2023/12/01 01:17:27;;;;;;;7.47;6.27;;;;;;;;;;5013746;28;20179;-76
2023/12/01 01:19:53;;;;;;;8.50;7.00;;;;;;;;;;5015619;28;20183;-76
2023/12/01 01:22:18;;;;;;;8.23;6.47;;;;;;;;;;5012646;28;20262;-76
2023/12/01 01:24:43;;;;;;;10.07;7.87;;;;;;;;;;5016208;28;20225;-76
2023/12/01 01:27:08;;;;;;;9.67;8.43;;;;;;;;;;5015232;28;20241;-75
2023/12/01 01:29:35;;;;;;;9.30;8.07;;;;;;;;;;5016056;28;20195;-77
2023/12/01 01:32:00;;;;;;;13.57;11.20;;;;;;;;;;5019438;28;20207;-76
2023/12/01 01:34:27;;;;;;;10.17;8.27;;;;;;;;;;5019766;28;20175;-76
2023/12/01 01:36:52;;;;;;;11.47;8.97;;;;;;;;;;5018751;28;20178;-76
2023/12/01 01:39:17;;;;;;;19.40;10.03;;;;;;;;;;5013265;28;20210;-76
2023/12/01 01:41:42;;;;;;;24.20;10.00;;;;;;;;;;5014767;28;20175;-76
2023/12/01 01:44:07;;;;;;;19.60;10.37;;;;;;;;;;5010334;28;20245;-76
2023/12/01 01:46:33;;;;;;;13.27;10.10;;;;;;;;;;5018049;28;20511;-76
2023/12/01 01:48:58;;;;;;;13.37;9.80;;;;;;;;;;5020293;28;20187;-76
2023/12/01 01:51:23;;;;;;;14.60;10.67;;;;;;;;;;5023006;28;20218;-76
2023/12/01 01:53:49;;;;;;;17.83;11.10;;;;;;;;;;5022340;28;20174;-76
2023/12/01 01:56:14;;;;;;;11.90;9.97;;;;;;;;;;5015273;28;20226;-77
2023/12/01 01:58:40;;;;;;;14.03;11.03;;;;;;;;;;5010095;28;20250;-76
2023/12/01 02:01:07;;;;;;;15.63;12.13;;;;;;;;;;5014641;28;20188;-76
2023/12/01 02:03:33;;;;;;;14.50;11.30;;;;;;;;;;5024212;28;20178;-76
2023/12/01 02:05:58;;;;;;;17.13;11.77;;;;;;;;;;5016834;28;20267;-76
2023/12/01 02:08:24;;;;;;;17.30;13.00;;;;;;;;;;5023221;28;20191;-76
2023/12/01 02:10:50;;;;;;;17.80;13.23;;;;;;;;;;5011986;28;20203;-76
2023/12/01 02:13:16;;;;;;;14.43;11.30;;;;;;;;;;5035425;28;20229;-76
2023/12/01 02:15:44;;;;;;;17.37;13.13;;;;;;;;;;5027431;28;20184;-76
2023/12/01 02:18:38;;;;;;;15.63;11.97;;;;;;;;;;5022380;28;20223;-76
2023/12/01 02:21:04;;;;;;;20.80;13.97;;;;;;;;;;5003410;28;20187;-75
2023/12/01 02:23:29;;;;;;;17.80;13.00;;;;;;;;;;5018232;28;20182;-76
2023/12/01 02:25:54;;;;;;;19.03;13.40;;;;;;;;;;5017631;28;20262;-75
2023/12/01 02:28:20;;;;;;;16.40;12.63;;;;;;;;;;5022074;28;20190;-76
2023/12/01 02:30:50;;;;;;;20.10;14.20;;;;;;;;;;5015592;28;20198;-75
2023/12/01 02:33:15;;;;;;;17.53;12.10;;;;;;;;;;5017358;28;20206;-76
2023/12/01 02:35:45;;;;;;;19.87;13.87;;;;;;;;;;5018518;28;20273;-77
2023/12/01 02:38:10;;;;;;;15.53;12.30;;;;;;;;;;5014545;28;20203;-76
2023/12/01 02:40:37;;;;;;;17.20;13.27;;;;;;;;;;5021041;28;20183;-76
2023/12/01 02:43:06;;;;;;;17.87;13.57;;;;;;;;;;5019089;28;20171;-76
2023/12/01 02:45:32;;;;;;;16.50;13.23;;;;;;;;;;5021784;28;20192;-76
2023/12/01 02:47:57;;;;;;;18.93;12.97;;;;;;;;;;5016032;28;20268;-75
2023/12/01 02:50:22;;;;;;;18.70;12.83;;;;;;;;;;5018666;28;20201;-75
2023/12/01 02:52:47;;;;;;;15.03;12.30;;;;;;;;;;5020672;28;20182;-76
2023/12/01 02:55:13;;;;;;;16.30;12.40;;;;;;;;;;5017536;28;20210;-76
2023/12/01 02:57:39;;;;;;;13.90;12.07;;;;;;;;;;5014604;28;20222;-76
2023/12/01 03:00:06;;;;;;;21.17;14.50;;;;;;;;;;5023753;28;20167;-76
2023/12/01 03:02:31;;;;;;;17.07;12.53;;;;;;;;;;5014083;28;20210;-76
2023/12/01 03:04:56;;;;;;;15.77;12.33;;;;;;;;;;5017909;28;20179;-76
2023/12/01 03:07:21;;;;;;;18.07;13.97;;;;;;;;;;5025436;28;20825;-76
2023/12/01 03:09:46;;;;;;;18.97;13.97;;;;;;;;;;5015403;28;20241;-76
2023/12/01 03:12:12;;;;;;;16.63;13.13;;;;;;;;;;5013906;28;20171;-76
2023/12/01 03:14:37;;;;;;;18.73;13.70;;;;;;;;;;5017491;28;20215;-75
2023/12/01 03:17:02;;;;;;;17.57;13.93;;;;;;;;;;5023839;28;20293;-76
2023/12/01 03:19:27;;;;;;;19.90;13.87;;;;;;;;;;5019114;28;20207;-76
2023/12/01 03:21:52;;;;;;;14.97;12.00;;;;;;;;;;5018105;28;20179;-76
2023/12/01 03:24:18;;;;;;;16.13;12.07;;;;;;;;;;5013943;28;20179;-76
2023/12/01 03:26:43;;;;;;;19.37;14.73;;;;;;;;;;5022810;28;20183;-76
2023/12/01 03:29:09;;;;;;;18.23;13.93;;;;;;;;;;5014626;28;20186;-75
2023/12/01 03:31:35;;;;;;;18.83;13.63;;;;;;;;;;5018287;28;20206;-76
2023/12/01 03:34:01;;;;;;;17.87;13.37;;;;;;;;;;5018049;28;20179;-75
2023/12/01 03:36:26;;;;;;;18.23;13.63;;;;;;;;;;5018140;28;20171;-77
2023/12/01 03:38:51;;;;;;;17.10;12.77;;;;;;;;;;5012267;28;20211;-76
2023/12/01 03:41:16;;;;;;;18.40;12.87;;;;;;;;;;5016737;28;20179;-75
2023/12/01 03:43:42;;;;;;;18.53;13.63;;;;;;;;;;5017106;28;20179;-75
2023/12/01 03:46:07;;;;;;;27.30;17.07;;;;;;;;;;5017332;28;20191;-76
2023/12/01 03:48:36;;;;;;;21.77;16.53;;;;;;;;;;5026025;28;20171;-76
2023/12/01 03:51:01;;;;;;;22.30;15.40;;;;;;;;;;5021202;28;20266;-76
2023/12/01 03:53:30;;;;;;;19.10;14.77;;;;;;;;;;5013466;28;20275;-76
2023/12/01 03:55:55;;;;;;;19.63;13.87;;;;;;;;;;5016065;28;20231;-76
2023/12/01 03:58:24;;;;;;;18.60;14.90;;;;;;;;;;5015864;28;20207;-75
2023/12/01 04:00:50;;;;;;;18.80;13.30;;;;;;;;;;5020648;28;20175;-75
2023/12/01 04:03:15;;;;;;;19.90;13.20;;;;;;;;;;5011955;28;20199;-75
2023/12/01 04:05:41;;;;;;;18.13;13.47;;;;;;;;;;5018681;28;20272;-76
2023/12/01 04:08:06;;;;;;;17.00;12.67;;;;;;;;;;5015478;28;20210;-76
2023/12/01 04:10:31;;;;;;;15.87;12.50;;;;;;;;;;5010100;28;20210;-76
2023/12/01 04:13:04;;;;;;;14.20;11.23;;;;;;;;;;5014807;28;20222;-75
2023/12/01 04:15:29;;;;;;;14.77;11.47;;;;;;;;;;5016332;28;20179;-76
2023/12/01 04:17:55;;;;;;;15.33;11.33;;;;;;;;;;5022893;28;20213;-75
2023/12/01 04:20:35;;;;;;;13.73;10.93;;;;;;;;;;5011604;28;20172;-75
2023/12/01 04:23:02;;;;;;;11.93;9.43;;;;;;;;;;5018079;28;20234;-75
2023/12/01 04:25:28;;;;;;;13.97;10.97;;;;;;;;;;5013721;28;20571;-76
2023/12/01 04:27:53;;;;;;;12.40;9.17;;;;;;;;;;5018457;28;20262;-76
2023/12/01 04:30:20;;;;;;;11.53;9.10;;;;;;;;;;5010121;28;20549;-76
2023/12/01 04:32:52;;;;;;;11.10;9.27;;;;;;;;;;5031993;28;20223;-75
2023/12/01 04:35:18;;;;;;;10.77;9.50;;;;;;;;;;5031688;28;20182;-76
2023/12/01 04:37:43;;;;;;;11.67;9.03;;;;;;;;;;5015590;28;20180;-75
2023/12/01 04:40:14;;;;;;;11.20;9.67;;;;;;;;;;5017656;28;20248;-76
2023/12/01 04:42:40;;;;;;;13.90;9.43;;;;;;;;;;5011448;28;20187;-76
2023/12/01 04:45:06;;;;;;;10.50;8.67;;;;;;;;;;5011538;28;20207;-76
2023/12/01 04:47:33;;;;;;;10.03;8.43;;;;;;;;;;5014905;28;20193;-76
2023/12/01 04:49:58;;;;;;;10.90;8.97;;;;;;;;;;5022709;28;20241;-76
2023/12/01 04:52:23;;;;;;;11.13;8.20;;;;;;;;;;5018818;28;20273;-76
2023/12/01 04:54:48;;;;;;;10.87;9.20;;;;;;;;;;5012934;28;20187;-76
2023/12/01 04:57:13;;;;;;;10.13;8.07;;;;;;;;;;5014342;28;20211;-76
2023/12/01 04:59:39;;;;;;;10.93;8.47;;;;;;;;;;5018978;28;20241;-76
2023/12/01 05:02:04;;;;;;;9.27;8.20;;;;;;;;;;5014582;28;20198;-76
2023/12/01 05:04:29;;;;;;;8.97;7.63;;;;;;;;;;5015288;28;20280;-76
2023/12/01 05:06:54;;;;;;;9.80;8.40;;;;;;;;;;5010729;28;20182;-76
2023/12/01 05:09:22;;;;;;;10.17;8.03;;;;;;;;;;5012264;28;20243;-76
2023/12/01 05:11:48;;;;;;;11.67;8.20;;;;;;;;;;5012314;28;20183;-75
2023/12/01 05:14:13;;;;;;;8.57;7.60;;;;;;;;;;5015926;28;20509;-76
2023/12/01 05:16:39;;;;;;;10.33;8.23;;;;;;;;;;5015247;28;20270;-76
2023/12/01 05:19:05;;;;;;;9.20;7.93;;;;;;;;;;5013875;28;20195;-76
2023/12/01 05:21:31;;;;;;;8.43;7.33;;;;;;;;;;5013607;28;20171;-76
2023/12/01 05:23:57;;;;;;;8.57;7.03;;;;;;;;;;5010831;28;20862;-77
2023/12/01 05:26:23;;;;;;;7.90;7.03;;;;;;;;;;5010369;28;20174;-76
2023/12/01 05:28:48;;;;;;;11.87;10.77;;;;;;;;;;5018029;28;20175;-76
2023/12/01 05:31:13;;;;;;;7.60;6.80;;;;;;;;;;5014180;28;20266;-76
2023/12/01 05:33:38;;;;;;;8.23;7.00;;;;;;;;;;5010899;28;20190;-76
2023/12/01 05:36:14;;;;;;;7.87;6.63;;;;;;;;;;5018698;28;20185;-75
2023/12/01 05:38:39;;;;;;;7.87;6.97;;;;;;;;;;5014923;28;20281;-76
2023/12/01 05:41:09;;;;;;;8.23;6.77;;;;;;;;;;5025393;28;20254;-76
2023/12/01 05:43:34;;;;;;;7.47;6.67;;;;;;;;;;5019873;28;20182;-77
2023/12/01 05:45:59;;;;;;;8.87;7.97;;;;;;;;;;5023969;28;20239;-76
2023/12/01 05:48:25;;;;;;;9.17;7.13;;;;;;;;;;5020697;28;20187;-77
2023/12/01 05:50:51;;;;;;;7.57;6.27;;;;;;;;;;5020901;28;20186;-76
2023/12/01 05:53:17;;;;;;;7.20;6.40;;;;;;;;;;5023309;28;20228;-77
2023/12/01 05:55:42;;;;;;;7.97;7.00;;;;;;;;;;5029659;28;20268;-76
2023/12/01 05:58:12;;;;;;;6.77;6.07;;;;;;;;;;5012971;28;20337;-77
2023/12/01 06:00:37;;;;;;;6.50;5.47;;;;;;;;;;5016573;28;20184;-77
2023/12/01 06:03:06;;;;;;;7.20;5.60;;;;;;;;;;5024028;28;20185;-77
2023/12/01 06:05:31;;;;;;;6.67;5.73;;;;;;;;;;5023940;28;20167;-77
2023/12/01 06:07:58;;;;;;;8.47;6.43;;;;;;;;;;5023445;28;20180;-77
2023/12/01 06:10:23;;;;;;;6.07;5.30;;;;;;;;;;5028287;28;20200;-77
2023/12/01 06:12:49;;;;;;;8.90;7.13;;;;;;;;;;5014816;28;20183;-76
2023/12/01 06:15:15;;;;;;;6.20;5.60;;;;;;;;;;5017463;28;20184;-76
2023/12/01 06:17:41;;;;;;;6.83;5.10;;;;;;;;;;5021360;28;20233;-76
2023/12/01 06:20:16;;;;;;;6.83;6.13;;;;;;;;;;5021791;28;20195;-77
2023/12/01 06:22:42;;;;;;;5.90;5.30;;;;;;;;;;5019339;28;20190;-77
2023/12/01 06:25:08;;;;;;;6.00;5.40;;;;;;;;;;5018271;28;20185;-76
2023/12/01 06:27:33;;;;;;;6.77;5.57;;;;;;;;;;5019500;28;20259;-78
2023/12/01 06:29:58;;;;;;;5.93;5.33;;;;;;;;;;5016462;28;20167;-77
2023/12/01 06:32:24;;;;;;;5.17;4.43;;;;;;;;;;5014058;28;20244;-76
2023/12/01 06:34:49;;;;;;;5.30;4.80;;;;;;;;;;5019791;28;20175;-76
2023/12/01 06:37:14;;;;;;;5.50;4.87;;;;;;;;;;5024667;28;20170;-77
2023/12/01 06:39:40;;;;;;;4.63;4.23;;;;;;;;;;5020026;28;20207;-76
2023/12/01 06:42:05;;;;;;;5.00;4.50;;;;;;;;;;5018510;28;20202;-77
2023/12/01 06:44:34;;;;;;;6.13;5.40;;;;;;;;;;5029101;28;20182;-76
2023/12/01 06:47:00;;;;;;;9.93;5.60;;;;;;;;;;5027098;28;20171;-77
2023/12/01 06:49:25;;;;;;;5.17;4.67;;;;;;;;;;5021327;28;20298;-77
2023/12/01 06:51:50;;;;;;;6.63;5.30;;;;;;;;;;5017212;28;20188;-77
2023/12/01 06:54:15;;;;;;;6.07;5.47;;;;;;;;;;5026658;28;20206;-75
2023/12/01 06:56:41;;;;;;;5.93;4.80;;;;;;;;;;5020958;28;20372;-75
2023/12/01 06:59:08;;;;;;;5.93;5.37;;;;;;;;;;5020457;28;20193;-75
2023/12/01 07:01:35;;;;;;;5.70;5.03;;;;;;;;;;5018911;28;20182;-76
2023/12/01 07:04:07;;;;;;;5.67;5.17;;;;;;;;;;5015639;28;20180;-76
2023/12/01 07:06:33;;;;;;;5.30;4.67;;;;;;;;;;5015998;28;20179;-75
2023/12/01 07:08:58;;;;;;;6.20;5.47;;;;;;;;;;5014759;28;20190;-75
2023/12/01 07:11:24;;;;;;;5.60;5.10;;;;;;;;;;5019109;28;20608;-75
2023/12/01 07:13:49;;;;;;;5.90;5.30;;;;;;;;;;5019711;28;20183;-75
2023/12/01 07:16:15;;;;;;;6.43;5.07;;;;;;;;;;5019768;28;20195;-75
2023/12/01 07:18:40;;;;;;;6.40;4.93;;;;;;;;;;5014282;28;20199;-76
2023/12/01 07:21:06;;;;;;;7.37;5.63;;;;;;;;;;5022879;28;20464;-75
2023/12/01 07:23:34;;;;;;;5.27;4.67;;;;;;;;;;5015512;28;20237;-75
2023/12/01 07:26:00;;;;;;;6.37;5.40;;;;;;;;;;5035600;28;20187;-75
2023/12/01 07:28:25;;;;;;;5.83;5.23;;;;;;;;;;5016120;28;20318;-75
2023/12/01 07:30:50;;;;;;;6.40;5.33;;;;;;;;;;5021619;28;20178;-75
2023/12/01 07:33:16;;;;;;;5.90;4.83;;;;;;;;;;5020683;28;20203;-75
2023/12/01 07:35:41;;;;;;;6.70;5.70;;;;;;;;;;5022141;28;20218;-75
2023/12/01 07:38:06;;;;;;;5.27;4.77;;;;;;;;;;5017622;28;20219;-76
2023/12/01 07:40:32;;;;;;;5.97;5.37;;;;;;;;;;5018540;28;20726;-75
2023/12/01 07:42:58;;;;;;;7.23;5.93;;;;;;;;;;5014202;28;20410;-75
2023/12/01 07:45:23;;;;;;;6.90;6.07;;;;;;;;;;5020444;28;20213;-75
2023/12/01 07:47:49;;;;;;;5.50;4.90;;;;;;;;;;5020053;28;20174;-75
2023/12/01 07:50:15;;;;;;;5.97;5.20;;;;;;;;;;5020081;28;20183;-75
2023/12/01 07:52:50;;;;;;;6.87;5.83;;;;;;;;;;5021911;28;20190;-75
2023/12/01 07:55:15;;;;;;;6.53;5.67;;;;;;;;;;5019582;28;20173;-75
2023/12/01 07:57:41;;;;;;;5.83;5.23;;;;;;;;;;5028724;28;20219;-75
2023/12/01 08:00:14;;;;;;;6.03;5.43;;;;;;;;;;5014500;28;20179;-75
2023/12/01 08:02:40;;;;;;;6.73;5.30;;;;;;;;;;5018456;28;20186;-76
2023/12/01 08:05:06;;;;;;;7.23;5.77;;;;;;;;;;5022688;28;20178;-75
2023/12/01 08:07:32;;;;;;;5.83;5.17;;;;;;;;;;5021474;28;20183;-75
2023/12/01 08:09:58;;;;;;;5.83;4.97;;;;;;;;;;5023251;28;20510;-76
2023/12/01 08:12:25;;;;;;;7.50;5.80;;;;;;;;;;5022687;28;20232;-75
2023/12/01 08:14:50;;;;;;;8.00;6.30;;;;;;;;;;5017390;28;20170;-75
2023/12/01 08:17:15;;;;;;;6.93;6.10;;;;;;;;;;5017132;28;20182;-75
2023/12/01 08:19:41;;;;;;;6.60;5.80;;;;;;;;;;5027165;28;20195;-75
2023/12/01 08:22:06;;;;;;;9.13;6.10;;;;;;;;;;5021083;28;20289;-75
2023/12/01 08:24:32;;;;;;;7.30;5.57;;;;;;;;;;5021020;28;20183;-74
2023/12/01 08:26:58;;;;;;;8.00;6.40;;;;;;;;;;5013287;28;20192;-75
2023/12/01 08:29:23;;;;;;;7.57;6.77;;;;;;;;;;5019537;28;20194;-74
2023/12/01 08:31:49;;;;;;;7.13;5.97;;;;;;;;;;5019227;28;20294;-76
2023/12/01 08:34:14;;;;;;;7.00;5.47;;;;;;;;;;5018228;28;20175;-75
2023/12/01 08:36:39;;;;;;;6.60;5.80;;;;;;;;;;5019349;28;20185;-75
2023/12/01 08:39:04;;;;;;;5.70;5.10;;;;;;;;;;5017723;28;20201;-76
2023/12/01 08:41:29;;;;;;;5.90;4.83;;;;;;;;;;5018314;28;20275;-76
2023/12/01 08:43:55;;;;;;;5.60;4.60;;;;;;;;;;5023161;28;20179;-75
2023/12/01 08:46:20;;;;;;;5.63;4.70;;;;;;;;;;5017205;28;20201;-75
2023/12/01 08:48:45;;;;;;;4.80;4.30;;;;;;;;;;5023158;28;20210;-75
2023/12/01 08:51:10;;;;;;;5.03;4.53;;;;;;;;;;5024429;28;20191;-76
2023/12/01 08:53:35;;;;;;;5.30;4.37;;;;;;;;;;5019904;28;20201;-75
2023/12/01 08:56:01;;;;;;;4.33;3.87;;;;;;;;;;5019814;28;20268;-76
2023/12/01 08:58:27;;;;;;;5.23;4.17;;;;;;;;;;5019018;28;20207;-76
2023/12/01 09:00:52;;;;;;;7.97;4.57;;;;;;;;;;5023586;28;20171;-75
2023/12/01 09:03:17;;;;;;;6.37;4.87;;;;;;;;;;5020375;28;20182;-76
2023/12/01 09:05:42;;;;;;;5.77;4.93;;;;;;;;;;5012396;28;20179;-75
2023/12/01 09:08:08;;;;;;;5.97;4.17;;;;;;;;;;5019187;28;20265;-76
2023/12/01 09:10:33;;;;;;;6.00;4.97;;;;;;;;;;5024013;28;20269;-75
2023/12/01 09:12:58;;;;;;;6.30;4.43;;;;;;;;;;5021843;28;20269;-75
2023/12/01 09:15:23;;;;;;;5.40;4.27;;;;;;;;;;5011299;28;20183;-75
2023/12/01 09:17:49;;;;;;;5.77;4.50;;;;;;;;;;5015391;28;20180;-76
2023/12/01 09:20:14;;;;;;;5.50;4.03;;;;;;;;;;5019475;28;20386;-76
2023/12/01 09:22:39;;;;;;;4.77;3.57;;;;;;;;;;5011787;28;20174;-75
2023/12/01 09:25:05;;;;;;;5.87;3.70;;;;;;;;;;5016178;28;20184;-75
2023/12/01 09:27:30;;;;;;;5.30;4.03;;;;;;;;;;5015330;28;20175;-76
2023/12/01 09:29:55;;;;;;;4.40;3.93;;;;;;;;;;5011646;28;20209;-75
2023/12/01 09:32:20;;;;;;;5.60;3.90;;;;;;;;;;5022681;28;20195;-75
2023/12/01 09:34:46;;;;;;;4.77;3.83;;;;;;;;;;5020701;28;20191;-76
2023/12/01 09:37:12;;;;;;;5.10;4.07;;;;;;;;;;5019816;28;20206;-75
2023/12/01 09:39:37;;;;;;;5.13;3.73;;;;;;;;;;5025817;28;20221;-75
2023/12/01 09:42:05;;;;;;;5.07;4.17;;;;;;;;;;5017159;28;20171;-75
2023/12/01 09:44:31;;;;;;;5.63;4.87;;;;;;;;;;5016602;28;20179;-75
2023/12/01 09:46:58;;;;;;;4.80;3.33;;;;;;;;;;5018547;28;20329;-75
2023/12/01 09:49:23;;;;;;;5.43;4.20;;;;;;;;;;5023560;28;20208;-77
2023/12/01 09:51:49;;;;;;;7.43;4.10;;;;;;;;;;5027831;28;20178;-75
2023/12/01 09:54:14;;;;;;;6.60;3.73;;;;;;;;;;5026375;28;20183;-75
2023/12/01 09:56:39;;;;;;;4.30;3.17;;;;;;;;;;5020432;28;20229;-76
2023/12/01 09:59:05;;;;;;;4.37;3.77;;;;;;;;;;5018376;28;20621;-75
2023/12/01 10:01:30;;;;;;;4.63;3.73;;;;;;;;;;5021471;28;20174;-76
2023/12/01 10:03:55;;;;;;;4.60;3.47;;;;;;;;;;5022612;28;20179;-75
2023/12/01 10:06:21;;;;;;;5.30;3.60;;;;;;;;;;5019395;28;20175;-75
2023/12/01 10:08:49;;;;;;;4.50;3.33;;;;;;;;;;5016386;28;20187;-75
2023/12/01 10:11:18;;;;;;;5.43;4.33;;;;;;;;;;5016298;28;20191;-76
2023/12/01 10:13:45;;;;;;;7.97;5.70;;;;;;;;;;5014841;28;20183;-76
2023/12/01 10:16:10;;;;;;;5.43;4.17;;;;;;;;;;5015706;28;20186;-76
2023/12/01 10:18:35;;;;;;;5.93;4.07;;;;;;;;;;5008744;28;20207;-75
2023/12/01 10:21:02;;;;;;;5.93;4.30;;;;;;;;;;5014120;28;20183;-75
2023/12/01 10:23:28;;;;;;;5.17;4.27;;;;;;;;;;5026416;28;20233;-75
2023/12/01 10:25:53;;;;;;;5.07;4.57;;;;;;;;;;5015682;28;20455;-75
2023/12/01 10:28:19;;;;;;;7.80;5.40;;;;;;;;;;5012037;28;20179;-76
2023/12/01 10:30:51;;;;;;;22.77;6.40;;;;;;;;;;5011107;28;20179;-85
2023/12/01 10:33:16;;;;;;;7.17;5.70;;;;;;;;;;5018260;28;20202;-85
2023/12/01 10:35:56;;;;;;;7.93;5.30;;;;;;;;;;5017556;28;20529;-86
2023/12/01 10:38:22;;;;;;;177.20;19.07;;;;;;;;;;5023228;28;20244;-85
2023/12/01 10:40:48;;;;;;;9.97;6.03;;;;;;;;;;5015213;28;20270;-87
2023/12/01 10:43:13;;;;;;;8.73;6.30;;;;;;;;;;5014233;28;20190;-86
2023/12/01 10:45:39;;;;;;;9.03;6.73;;;;;;;;;;5016907;28;20303;-85
2023/12/01 10:48:04;;;;;;;10.40;5.83;;;;;;;;;;5021836;28;20186;-86
2023/12/01 10:50:34;;;;;;;47.53;10.53;;;;;;;;;;5018206;28;20530;-86
2023/12/01 10:52:59;;;;;;;9.07;6.77;;;;;;;;;;5020716;28;20175;-87
2023/12/01 10:55:24;;;;;;;11.90;6.17;;;;;;;;;;5019822;28;20190;-84
2023/12/01 10:57:51;;;;;;;6.90;5.80;;;;;;;;;;5018363;28;20231;-85
2023/12/01 11:00:31;;;;;;;8.40;6.73;;;;;;;;;;5024558;28;20289;-86
2023/12/01 11:03:03;;;;;;;7.17;5.83;;;;;;;;;;5020465;28;20171;-86
2023/12/01 11:05:30;;;;;;;8.60;5.70;;;;;;;;;;5018180;28;20179;-79
2023/12/01 11:08:15;;;;;;;7.80;5.90;;;;;;;;;;5018165;28;20175;-85
2023/12/01 11:10:56;;;;;;;8.60;5.50;;;;;;;;;;5022664;28;20189;-86
2023/12/01 11:13:34;;;;;;;8.07;5.80;;;;;;;;;;5012090;28;20183;-85
2023/12/01 11:16:01;;;;;;;7.60;5.27;;;;;;;;;;5035029;28;20175;-86
2023/12/01 11:18:26;;;;;;;22.47;7.00;;;;;;;;;;5017496;28;20199;-87
2023/12/01 11:20:52;;;;;;;9.47;5.77;;;;;;;;;;5017843;28;20182;-87
2023/12/01 11:23:22;;;;;;;6.90;6.00;;;;;;;;;;5024649;28;20201;-86
2023/12/01 11:25:48;;;;;;;10.00;5.43;;;;;;;;;;5022340;28;20232;-85
2023/12/01 11:31:13;;;;;;;7.47;4.50;;;;;;;;;;5017525;28;20171;-86
2023/12/01 11:33:49;;;;;;;9.93;4.87;;;;;;;;;;5025717;28;20222;-87
2023/12/01 11:36:22;;;;;;;7.73;5.80;;;;;;;;;;5024550;28;20178;-85
2023/12/01 11:39:11;;;;;;;8.70;6.03;;;;;;;;;;5016194;28;20274;-82
2023/12/01 11:41:44;;;;;;;8.57;6.23;;;;;;;;;;5020093;28;20207;-83
2023/12/01 11:44:29;;;;;;;9.10;5.80;;;;;;;;;;5019164;28;20179;-84
2023/12/01 11:46:59;;;;;;;10.10;5.97;;;;;;;;;;5015467;28;20203;-86
2023/12/01 11:49:25;;;;;;;63.83;9.50;;;;;;;;;;5031773;28;20181;-85
2023/12/01 11:51:51;;;;;;;7.80;4.53;;;;;;;;;;5021896;28;20230;-85
2023/12/01 11:54:16;;;;;;;26.57;6.93;;;;;;;;;;5018055;28;20204;-86
2023/12/01 11:56:45;;;;;;;16.57;7.77;;;;;;;;;;5029235;28;20227;-84
2023/12/01 11:59:10;;;;;;;120.40;14.23;;;;;;;;;;5019666;28;20198;-85
2023/12/01 12:01:37;;;;;;;9.63;6.83;;;;;;;;;;5023991;28;20170;-85
2023/12/01 12:04:04;;;;;;;47.60;9.63;;;;;;;;;;5025358;28;20298;-84
2023/12/01 12:06:32;;;;;;;13.30;6.83;;;;;;;;;;5013434;28;20172;-83
2023/12/01 12:08:57;;;;;;;14.07;6.77;;;;;;;;;;5010717;28;20175;-87
2023/12/01 12:11:23;;;;;;;10.23;7.07;;;;;;;;;;5016116;28;20176;-77
2023/12/01 12:13:55;;;;;;;20.43;8.03;;;;;;;;;;5019437;28;20266;-81
2023/12/01 12:16:22;;;;;;;9.73;7.30;;;;;;;;;;5013470;28;20229;-85
2023/12/01 12:18:48;;;;;;;9.97;7.23;;;;;;;;;;5021928;28;20229;-85
2023/12/01 12:21:13;;;;;;;10.17;6.60;;;;;;;;;;5013205;28;20176;-83
2023/12/01 12:23:39;;;;;;;12.10;6.90;;;;;;;;;;5023108;28;20195;-81
2023/12/01 12:26:17;;;;;;;10.73;7.37;;;;;;;;;;5018213;28;20167;-85
2023/12/01 12:28:45;;;;;;;13.83;7.40;;;;;;;;;;5018679;28;20214;-85
2023/12/01 12:31:11;;;;;;;12.53;7.80;;;;;;;;;;5014388;28;20175;-84
2023/12/01 12:33:36;;;;;;;9.23;6.73;;;;;;;;;;5019750;28;20186;-85
2023/12/01 12:36:01;;;;;;;8.90;6.47;;;;;;;;;;5019743;28;20171;-86
2023/12/01 12:38:27;;;;;;;9.97;6.50;;;;;;;;;;5019496;28;20202;-84
2023/12/01 12:40:52;;;;;;;11.33;7.60;;;;;;;;;;5018402;28;20170;-85
2023/12/01 12:43:20;;;;;;;11.97;7.90;;;;;;;;;;5018967;28;20183;-83
2023/12/01 12:45:45;;;;;;;11.50;7.20;;;;;;;;;;5019402;28;20196;-84
2023/12/01 12:48:10;;;;;;;11.10;7.57;;;;;;;;;;5018415;28;20262;-85
2023/12/01 12:50:41;;;;;;;9.60;6.47;;;;;;;;;;5022084;28;20189;-82
2023/12/01 12:53:07;;;;;;;10.10;6.93;;;;;;;;;;5015914;28;20202;-83
2023/12/01 12:55:32;;;;;;;9.30;6.67;;;;;;;;;;5021265;28;20214;-84
2023/12/01 12:57:58;;;;;;;10.70;7.07;;;;;;;;;;5011954;28;20187;-83
2023/12/01 13:00:23;;;;;;;13.67;8.43;;;;;;;;;;5024574;28;20171;-80
2023/12/01 13:02:48;;;;;;;16.63;7.60;;;;;;;;;;5023239;28;20177;-83
2023/12/01 13:05:13;;;;;;;15.23;7.63;;;;;;;;;;5022859;28;20178;-83
2023/12/01 13:07:39;;;;;;;12.20;7.60;;;;;;;;;;5026217;28;20190;-85
2023/12/01 13:10:04;;;;;;;10.27;7.57;;;;;;;;;;5021897;28;20266;-85
2023/12/01 13:12:29;;;;;;;9.33;6.57;;;;;;;;;;5015387;28;20182;-85
2023/12/01 13:14:54;;;;;;;10.17;6.90;;;;;;;;;;5016311;28;20171;-84
2023/12/01 13:17:22;;;;;;;12.80;7.55;;;;;;;;;;5020794;28;20182;-84
2023/12/01 13:19:48;;;;;;;10.77;6.97;;;;;;;;;;5013097;28;20249;-84
2023/12/01 13:22:14;;;;;;;10.33;7.63;;;;;;;;;;5009517;28;20180;-83
2023/12/01 13:24:39;;;;;;;9.47;6.67;;;;;;;;;;5021658;28;20442;-84
2023/12/01 13:27:04;;;;;;;11.30;7.03;;;;;;;;;;5015979;28;20270;-83
2023/12/01 13:29:29;;;;;;;10.97;7.93;;;;;;;;;;5007527;28;20179;-84
2023/12/01 13:31:55;;;;;;;9.63;7.10;;;;;;;;;;5023437;28;20201;-84
2023/12/01 13:34:20;;;;;;;9.60;5.97;;;;;;;;;;5015124;28;20179;-84
2023/12/01 13:36:46;;;;;;;7.80;6.00;;;;;;;;;;5019065;28;20241;-84
2023/12/01 13:39:16;;;;;;;10.87;7.00;;;;;;;;;;5010793;28;20198;-81
2023/12/01 13:41:41;;;;;;;9.70;6.90;;;;;;;;;;5022650;28;20175;-84
2023/12/01 13:44:06;;;;;;;8.00;6.23;;;;;;;;;;5013630;28;20217;-83
2023/12/01 13:46:31;;;;;;;10.00;6.90;;;;;;;;;;5016822;28;20194;-79
2023/12/01 13:48:56;;;;;;;9.60;7.00;;;;;;;;;;5008550;28;20255;-81
2023/12/01 13:51:21;;;;;;;8.77;7.20;;;;;;;;;;5014547;28;20195;-84
2023/12/01 13:53:47;;;;;;;9.87;7.07;;;;;;;;;;5020659;28;20493;-84
2023/12/01 13:56:12;;;;;;;9.03;6.93;;;;;;;;;;5023180;28;20245;-81
2023/12/01 13:58:40;;;;;;;10.93;7.13;;;;;;;;;;5008627;28;20195;-83
2023/12/01 14:01:06;;;;;;;10.97;8.00;;;;;;;;;;5021782;28;20207;-83
2023/12/01 14:03:31;;;;;;;7.43;5.70;;;;;;;;;;5016135;28;20237;-82
2023/12/01 14:05:56;;;;;;;10.97;7.47;;;;;;;;;;5026377;28;20177;-81
2023/12/01 14:08:24;;;;;;;9.40;6.90;;;;;;;;;;5024925;28;20183;-84
2023/12/01 14:10:49;;;;;;;10.40;7.67;;;;;;;;;;5024403;28;20185;-83
2023/12/01 14:13:14;;;;;;;10.67;7.27;;;;;;;;;;5021684;28;20184;-80
2023/12/01 14:15:39;;;;;;;10.33;6.97;;;;;;;;;;5025094;28;20187;-84
2023/12/01 14:18:05;;;;;;;8.80;6.23;;;;;;;;;;5024141;28;20185;-83
2023/12/01 14:20:30;;;;;;;11.13;7.47;;;;;;;;;;5014885;28;20270;-84
2023/12/01 14:22:55;;;;;;;12.57;8.43;;;;;;;;;;5021652;28;20181;-84
2023/12/01 14:25:20;;;;;;;10.53;7.63;;;;;;;;;;5020322;28;20167;-83
2023/12/01 14:27:46;;;;;;;11.90;8.27;;;;;;;;;;5018664;28;20245;-83
2023/12/01 14:30:11;;;;;;;10.07;6.93;;;;;;;;;;5021331;28;20261;-82
2023/12/01 14:32:36;;;;;;;11.40;8.37;;;;;;;;;;5022956;28;20203;-82
2023/12/01 14:35:02;;;;;;;11.73;7.97;;;;;;;;;;5025298;28;20183;-81